sensor_id;sensor_type;location;lat;lon;timestamp;P1;durP1;ratioP1;P2;durP2;ratioP2
2386;SDS011;49473;50.772;8.768;2023-02-18T00:01:23;7.07;;;6.47;;
2386;SDS011;49473;50.772;8.768;2023-02-18T00:03:50;6.93;;;6.33;;
2386;SDS011;49473;50.772;8.768;2023-02-18T00:06:18;7.30;;;6.60;;
2386;SDS011;49473;50.772;8.768;2023-02-18T00:08:48;7.10;;;6.40;;
2386;SDS011;49473;50.772;8.768;2023-02-18T00:11:16;6.87;;;6.27;;
2386;SDS011;49473;50.772;8.768;2023-02-18T00:13:48;7.40;;;6.70;;
2386;SDS011;49473;50.772;8.768;2023-02-18T00:16:15;6.40;;;5.80;;
2386;SDS011;49473;50.772;8.768;2023-02-18T00:18:42;6.70;;;6.20;;
2386;SDS011;49473;50.772;8.768;2023-02-18T00:21:08;7.60;;;6.87;;
2386;SDS011;49473;50.772;8.768;2023-02-18T00:23:35;8.13;;;7.40;;
2386;SDS011;49473;50.772;8.768;2023-02-18T00:26:04;6.80;;;6.30;;
2386;SDS011;49473;50.772;8.768;2023-02-18T00:28:32;6.93;;;6.33;;
2386;SDS011;49473;50.772;8.768;2023-02-18T00:31:04;6.70;;;6.10;;
2386;SDS011;49473;50.772;8.768;2023-02-18T00:33:31;6.60;;;6.10;;
2386;SDS011;49473;50.772;8.768;2023-02-18T00:36:00;6.13;;;5.57;;
2386;SDS011;49473;50.772;8.768;2023-02-18T00:38:27;6.90;;;6.40;;
2386;SDS011;49473;50.772;8.768;2023-02-18T00:40:54;7.60;;;6.90;;
2386;SDS011;49473;50.772;8.768;2023-02-18T00:43:22;6.80;;;6.20;;
2386;SDS011;49473;50.772;8.768;2023-02-18T00:45:49;6.47;;;5.87;;
2386;SDS011;49473;50.772;8.768;2023-02-18T00:48:16;6.40;;;5.90;;
2386;SDS011;49473;50.772;8.768;2023-02-18T00:50:43;7.03;;;6.20;;
2386;SDS011;49473;50.772;8.768;2023-02-18T00:53:10;6.57;;;6.07;;
2386;SDS011;49473;50.772;8.768;2023-02-18T00:55:38;6.07;;;5.57;;
2386;SDS011;49473;50.772;8.768;2023-02-18T00:58:05;6.57;;;5.93;;
2386;SDS011;49473;50.772;8.768;2023-02-18T01:00:33;6.33;;;5.73;;
2386;SDS011;49473;50.772;8.768;2023-02-18T01:03:00;6.83;;;6.17;;
2386;SDS011;49473;50.772;8.768;2023-02-18T01:05:26;6.60;;;6.10;;
2386;SDS011;49473;50.772;8.768;2023-02-18T01:07:53;5.90;;;5.40;;
2386;SDS011;49473;50.772;8.768;2023-02-18T01:10:20;6.53;;;6.03;;
2386;SDS011;49473;50.772;8.768;2023-02-18T01:12:47;6.80;;;6.20;;
2386;SDS011;49473;50.772;8.768;2023-02-18T01:15:14;6.33;;;5.73;;
2386;SDS011;49473;50.772;8.768;2023-02-18T01:17:43;6.53;;;5.70;;
2386;SDS011;49473;50.772;8.768;2023-02-18T01:20:10;6.60;;;6.10;;
2386;SDS011;49473;50.772;8.768;2023-02-18T01:22:38;6.73;;;6.10;;
2386;SDS011;49473;50.772;8.768;2023-02-18T01:25:06;6.47;;;5.70;;
2386;SDS011;49473;50.772;8.768;2023-02-18T01:27:33;6.37;;;5.30;;
2386;SDS011;49473;50.772;8.768;2023-02-18T01:30:00;8.23;;;5.97;;
2386;SDS011;49473;50.772;8.768;2023-02-18T01:32:27;6.00;;;5.50;;
2386;SDS011;49473;50.772;8.768;2023-02-18T01:34:55;6.10;;;5.60;;
2386;SDS011;49473;50.772;8.768;2023-02-18T01:37:21;5.40;;;4.83;;
2386;SDS011;49473;50.772;8.768;2023-02-18T01:39:48;5.20;;;4.63;;
2386;SDS011;49473;50.772;8.768;2023-02-18T01:42:17;5.40;;;5.00;;
2386;SDS011;49473;50.772;8.768;2023-02-18T01:44:44;5.00;;;4.60;;
2386;SDS011;49473;50.772;8.768;2023-02-18T01:47:11;4.33;;;4.00;;
2386;SDS011;49473;50.772;8.768;2023-02-18T01:49:38;5.27;;;4.80;;
2386;SDS011;49473;50.772;8.768;2023-02-18T01:52:07;4.57;;;4.17;;
2386;SDS011;49473;50.772;8.768;2023-02-18T01:54:38;4.40;;;4.00;;
2386;SDS011;49473;50.772;8.768;2023-02-18T01:57:08;8.13;;;4.80;;
2386;SDS011;49473;50.772;8.768;2023-02-18T01:59:38;4.07;;;3.77;;
2386;SDS011;49473;50.772;8.768;2023-02-18T02:02:07;4.63;;;4.23;;
2386;SDS011;49473;50.772;8.768;2023-02-18T02:04:38;4.10;;;3.70;;
2386;SDS011;49473;50.772;8.768;2023-02-18T02:07:06;4.43;;;4.13;;
2386;SDS011;49473;50.772;8.768;2023-02-18T02:09:33;3.73;;;3.43;;
2386;SDS011;49473;50.772;8.768;2023-02-18T02:12:08;3.90;;;3.60;;
2386;SDS011;49473;50.772;8.768;2023-02-18T02:15:15;4.30;;;3.50;;
2386;SDS011;49473;50.772;8.768;2023-02-18T02:17:52;3.50;;;3.20;;
2386;SDS011;49473;50.772;8.768;2023-02-18T02:20:37;3.47;;;3.27;;
2386;SDS011;49473;50.772;8.768;2023-02-18T02:23:40;3.03;;;2.80;;
2386;SDS011;49473;50.772;8.768;2023-02-18T02:35:40;3.90;;;2.60;;
2386;SDS011;49473;50.772;8.768;2023-02-18T02:38:11;4.37;;;4.00;;
2386;SDS011;49473;50.772;8.768;2023-02-18T02:40:44;3.47;;;3.17;;
2386;SDS011;49473;50.772;8.768;2023-02-18T02:43:17;2.90;;;2.70;;
2386;SDS011;49473;50.772;8.768;2023-02-18T02:45:53;2.63;;;2.33;;
2386;SDS011;49473;50.772;8.768;2023-02-18T02:48:26;3.20;;;2.90;;
2386;SDS011;49473;50.772;8.768;2023-02-18T02:51:01;2.60;;;2.40;;
2386;SDS011;49473;50.772;8.768;2023-02-18T02:53:33;2.60;;;2.40;;
2386;SDS011;49473;50.772;8.768;2023-02-18T02:56:01;2.70;;;2.50;;
2386;SDS011;49473;50.772;8.768;2023-02-18T02:58:28;2.40;;;2.23;;
2386;SDS011;49473;50.772;8.768;2023-02-18T03:01:08;2.50;;;2.20;;
2386;SDS011;49473;50.772;8.768;2023-02-18T03:03:49;2.90;;;2.20;;
2386;SDS011;49473;50.772;8.768;2023-02-18T03:06:45;2.20;;;2.00;;
2386;SDS011;49473;50.772;8.768;2023-02-18T03:09:38;2.00;;;1.80;;
2386;SDS011;49473;50.772;8.768;2023-02-18T03:12:15;1.80;;;1.47;;
2386;SDS011;49473;50.772;8.768;2023-02-18T03:14:50;1.70;;;1.60;;
2386;SDS011;49473;50.772;8.768;2023-02-18T03:17:24;1.60;;;1.50;;
2386;SDS011;49473;50.772;8.768;2023-02-18T03:19:56;1.50;;;1.40;;
2386;SDS011;49473;50.772;8.768;2023-02-18T03:22:29;1.70;;;1.60;;
2386;SDS011;49473;50.772;8.768;2023-02-18T03:24:58;3.00;;;1.50;;
2386;SDS011;49473;50.772;8.768;2023-02-18T03:27:27;1.53;;;1.43;;
2386;SDS011;49473;50.772;8.768;2023-02-18T03:29:59;1.20;;;1.10;;
2386;SDS011;49473;50.772;8.768;2023-02-18T03:32:29;1.10;;;1.10;;
2386;SDS011;49473;50.772;8.768;2023-02-18T03:35:01;1.00;;;0.90;;
2386;SDS011;49473;50.772;8.768;2023-02-18T03:37:32;1.40;;;1.10;;
2386;SDS011;49473;50.772;8.768;2023-02-18T03:40:04;2.40;;;1.00;;
2386;SDS011;49473;50.772;8.768;2023-02-18T03:42:32;1.53;;;0.90;;
2386;SDS011;49473;50.772;8.768;2023-02-18T03:44:59;0.80;;;0.80;;
2386;SDS011;49473;50.772;8.768;2023-02-18T03:47:26;2.17;;;1.00;;
2386;SDS011;49473;50.772;8.768;2023-02-18T03:49:53;1.13;;;1.00;;
2386;SDS011;49473;50.772;8.768;2023-02-18T03:52:20;0.60;;;0.60;;
2386;SDS011;49473;50.772;8.768;2023-02-18T03:54:48;1.27;;;0.80;;
2386;SDS011;49473;50.772;8.768;2023-02-18T03:57:14;0.73;;;0.73;;
2386;SDS011;49473;50.772;8.768;2023-02-18T03:59:41;0.70;;;0.70;;
2386;SDS011;49473;50.772;8.768;2023-02-18T04:02:08;1.17;;;0.80;;
2386;SDS011;49473;50.772;8.768;2023-02-18T04:04:35;1.00;;;0.80;;
2386;SDS011;49473;50.772;8.768;2023-02-18T04:07:01;2.10;;;0.70;;
2386;SDS011;49473;50.772;8.768;2023-02-18T04:09:28;0.70;;;0.60;;
2386;SDS011;49473;50.772;8.768;2023-02-18T04:11:56;0.57;;;0.57;;
2386;SDS011;49473;50.772;8.768;2023-02-18T04:14:23;0.57;;;0.57;;
2386;SDS011;49473;50.772;8.768;2023-02-18T04:16:50;0.50;;;0.50;;
2386;SDS011;49473;50.772;8.768;2023-02-18T04:19:16;0.80;;;0.80;;
2386;SDS011;49473;50.772;8.768;2023-02-18T04:21:43;2.33;;;0.97;;
2386;SDS011;49473;50.772;8.768;2023-02-18T04:24:10;1.10;;;0.70;;
2386;SDS011;49473;50.772;8.768;2023-02-18T04:26:37;0.70;;;0.70;;
2386;SDS011;49473;50.772;8.768;2023-02-18T04:29:05;0.93;;;0.73;;
2386;SDS011;49473;50.772;8.768;2023-02-18T04:31:31;0.80;;;0.80;;
2386;SDS011;49473;50.772;8.768;2023-02-18T04:33:58;2.03;;;0.70;;
2386;SDS011;49473;50.772;8.768;2023-02-18T04:36:25;1.40;;;0.87;;
2386;SDS011;49473;50.772;8.768;2023-02-18T04:38:52;0.83;;;0.83;;
2386;SDS011;49473;50.772;8.768;2023-02-18T04:41:19;1.17;;;1.07;;
2386;SDS011;49473;50.772;8.768;2023-02-18T04:43:45;0.80;;;0.80;;
2386;SDS011;49473;50.772;8.768;2023-02-18T04:46:13;1.47;;;0.90;;
2386;SDS011;49473;50.772;8.768;2023-02-18T04:48:40;1.10;;;1.10;;
2386;SDS011;49473;50.772;8.768;2023-02-18T04:51:07;1.20;;;1.20;;
2386;SDS011;49473;50.772;8.768;2023-02-18T04:53:34;1.10;;;1.10;;
2386;SDS011;49473;50.772;8.768;2023-02-18T04:56:01;1.90;;;1.10;;
2386;SDS011;49473;50.772;8.768;2023-02-18T04:58:28;1.20;;;1.20;;
2386;SDS011;49473;50.772;8.768;2023-02-18T05:00:57;1.10;;;1.10;;
2386;SDS011;49473;50.772;8.768;2023-02-18T05:03:26;1.63;;;1.53;;
2386;SDS011;49473;50.772;8.768;2023-02-18T05:05:53;1.67;;;1.30;;
2386;SDS011;49473;50.772;8.768;2023-02-18T05:08:20;1.43;;;1.13;;
2386;SDS011;49473;50.772;8.768;2023-02-18T05:10:47;2.00;;;1.90;;
2386;SDS011;49473;50.772;8.768;2023-02-18T05:13:14;1.90;;;1.80;;
2386;SDS011;49473;50.772;8.768;2023-02-18T05:15:41;2.10;;;1.80;;
2386;SDS011;49473;50.772;8.768;2023-02-18T05:18:07;1.90;;;1.80;;
2386;SDS011;49473;50.772;8.768;2023-02-18T05:20:35;2.20;;;2.10;;
2386;SDS011;49473;50.772;8.768;2023-02-18T05:23:02;1.90;;;1.80;;
2386;SDS011;49473;50.772;8.768;2023-02-18T05:25:29;4.90;;;2.20;;
2386;SDS011;49473;50.772;8.768;2023-02-18T05:27:56;1.97;;;1.87;;
2386;SDS011;49473;50.772;8.768;2023-02-18T05:30:23;2.07;;;1.90;;
2386;SDS011;49473;50.772;8.768;2023-02-18T05:32:49;2.27;;;2.17;;
2386;SDS011;49473;50.772;8.768;2023-02-18T05:35:16;1.90;;;1.80;;
2386;SDS011;49473;50.772;8.768;2023-02-18T05:37:44;1.93;;;1.83;;
2386;SDS011;49473;50.772;8.768;2023-02-18T05:40:11;1.70;;;1.60;;
2386;SDS011;49473;50.772;8.768;2023-02-18T05:42:38;1.70;;;1.60;;
2386;SDS011;49473;50.772;8.768;2023-02-18T05:45:04;2.30;;;1.93;;
2386;SDS011;49473;50.772;8.768;2023-02-18T05:47:32;2.87;;;1.70;;
2386;SDS011;49473;50.772;8.768;2023-02-18T05:49:58;1.60;;;1.60;;
2386;SDS011;49473;50.772;8.768;2023-02-18T05:52:25;4.20;;;1.60;;
2386;SDS011;49473;50.772;8.768;2023-02-18T05:54:53;3.80;;;1.73;;
2386;SDS011;49473;50.772;8.768;2023-02-18T05:57:20;1.43;;;1.33;;
2386;SDS011;49473;50.772;8.768;2023-02-18T05:59:47;1.53;;;1.43;;
2386;SDS011;49473;50.772;8.768;2023-02-18T06:02:14;1.40;;;1.40;;
2386;SDS011;49473;50.772;8.768;2023-02-18T06:04:40;1.40;;;1.30;;
2386;SDS011;49473;50.772;8.768;2023-02-18T06:07:07;0.93;;;0.93;;
2386;SDS011;49473;50.772;8.768;2023-02-18T06:09:34;1.67;;;1.57;;
2386;SDS011;49473;50.772;8.768;2023-02-18T06:12:02;1.50;;;1.40;;
2386;SDS011;49473;50.772;8.768;2023-02-18T06:14:29;2.60;;;1.30;;
2386;SDS011;49473;50.772;8.768;2023-02-18T06:16:56;1.40;;;1.30;;
2386;SDS011;49473;50.772;8.768;2023-02-18T06:19:23;1.40;;;1.30;;
2386;SDS011;49473;50.772;8.768;2023-02-18T06:21:49;1.43;;;1.33;;
2386;SDS011;49473;50.772;8.768;2023-02-18T06:24:16;1.10;;;1.00;;
2386;SDS011;49473;50.772;8.768;2023-02-18T06:26:43;1.03;;;1.03;;
2386;SDS011;49473;50.772;8.768;2023-02-18T06:29:11;1.37;;;1.27;;
2386;SDS011;49473;50.772;8.768;2023-02-18T06:31:38;1.60;;;1.27;;
2386;SDS011;49473;50.772;8.768;2023-02-18T06:34:04;1.30;;;1.20;;
2386;SDS011;49473;50.772;8.768;2023-02-18T06:36:31;0.90;;;0.90;;
2386;SDS011;49473;50.772;8.768;2023-02-18T06:38:58;0.97;;;0.90;;
2386;SDS011;49473;50.772;8.768;2023-02-18T06:41:25;1.20;;;1.00;;
2386;SDS011;49473;50.772;8.768;2023-02-18T06:43:51;0.97;;;0.97;;
2386;SDS011;49473;50.772;8.768;2023-02-18T06:46:19;1.47;;;1.37;;
2386;SDS011;49473;50.772;8.768;2023-02-18T06:48:46;0.93;;;0.93;;
2386;SDS011;49473;50.772;8.768;2023-02-18T06:51:13;1.33;;;0.90;;
2386;SDS011;49473;50.772;8.768;2023-02-18T06:53:41;1.00;;;1.00;;
2386;SDS011;49473;50.772;8.768;2023-02-18T06:56:08;3.20;;;2.80;;
2386;SDS011;49473;50.772;8.768;2023-02-18T06:58:35;5.10;;;4.70;;
2386;SDS011;49473;50.772;8.768;2023-02-18T07:01:02;1.47;;;1.10;;
2386;SDS011;49473;50.772;8.768;2023-02-18T07:03:30;3.03;;;2.83;;
2386;SDS011;49473;50.772;8.768;2023-02-18T07:05:57;1.10;;;1.10;;
2386;SDS011;49473;50.772;8.768;2023-02-18T07:08:25;1.40;;;1.30;;
2386;SDS011;49473;50.772;8.768;2023-02-18T07:10:52;1.33;;;1.10;;
2386;SDS011;49473;50.772;8.768;2023-02-18T07:13:18;0.93;;;0.93;;
2386;SDS011;49473;50.772;8.768;2023-02-18T07:15:45;1.30;;;1.20;;
2386;SDS011;49473;50.772;8.768;2023-02-18T07:18:12;1.47;;;1.37;;
2386;SDS011;49473;50.772;8.768;2023-02-18T07:20:41;1.50;;;1.40;;
2386;SDS011;49473;50.772;8.768;2023-02-18T07:23:07;4.77;;;4.37;;
2386;SDS011;49473;50.772;8.768;2023-02-18T07:25:36;1.70;;;1.60;;
2386;SDS011;49473;50.772;8.768;2023-02-18T07:28:03;0.90;;;0.90;;
2386;SDS011;49473;50.772;8.768;2023-02-18T07:30:30;0.87;;;0.87;;
2386;SDS011;49473;50.772;8.768;2023-02-18T07:32:57;7.17;;;6.57;;
2386;SDS011;49473;50.772;8.768;2023-02-18T07:35:24;1.80;;;1.50;;
2386;SDS011;49473;50.772;8.768;2023-02-18T07:37:52;1.57;;;1.47;;
2386;SDS011;49473;50.772;8.768;2023-02-18T07:40:19;2.33;;;0.80;;
2386;SDS011;49473;50.772;8.768;2023-02-18T07:42:47;1.10;;;1.10;;
2386;SDS011;49473;50.772;8.768;2023-02-18T07:45:15;1.40;;;1.30;;
2386;SDS011;49473;50.772;8.768;2023-02-18T07:47:41;3.00;;;2.63;;
2386;SDS011;49473;50.772;8.768;2023-02-18T07:50:09;0.70;;;0.70;;
2386;SDS011;49473;50.772;8.768;2023-02-18T07:52:36;0.90;;;0.90;;
2386;SDS011;49473;50.772;8.768;2023-02-18T07:55:05;2.00;;;0.90;;
2386;SDS011;49473;50.772;8.768;2023-02-18T07:57:32;1.00;;;1.00;;
2386;SDS011;49473;50.772;8.768;2023-02-18T08:00:19;1.97;;;1.77;;
2386;SDS011;49473;50.772;8.768;2023-02-18T08:02:46;3.43;;;0.93;;
2386;SDS011;49473;50.772;8.768;2023-02-18T08:05:12;3.33;;;2.63;;
2386;SDS011;49473;50.772;8.768;2023-02-18T08:07:39;2.43;;;2.23;;
2386;SDS011;49473;50.772;8.768;2023-02-18T08:10:07;2.23;;;1.97;;
2386;SDS011;49473;50.772;8.768;2023-02-18T08:12:34;1.50;;;1.40;;
2386;SDS011;49473;50.772;8.768;2023-02-18T08:15:01;1.97;;;1.57;;
2386;SDS011;49473;50.772;8.768;2023-02-18T08:17:28;3.27;;;2.70;;
2386;SDS011;49473;50.772;8.768;2023-02-18T08:19:55;3.90;;;3.50;;
2386;SDS011;49473;50.772;8.768;2023-02-18T08:22:21;1.80;;;1.57;;
2386;SDS011;49473;50.772;8.768;2023-02-18T08:24:48;6.03;;;4.40;;
2386;SDS011;49473;50.772;8.768;2023-02-18T08:27:16;2.30;;;2.10;;
2386;SDS011;49473;50.772;8.768;2023-02-18T08:29:43;1.73;;;1.60;;
2386;SDS011;49473;50.772;8.768;2023-02-18T08:32:10;0.83;;;0.83;;
2386;SDS011;49473;50.772;8.768;2023-02-18T08:34:36;1.77;;;0.80;;
2386;SDS011;49473;50.772;8.768;2023-02-18T08:37:04;1.00;;;0.90;;
2386;SDS011;49473;50.772;8.768;2023-02-18T08:39:32;1.23;;;0.63;;
2386;SDS011;49473;50.772;8.768;2023-02-18T08:41:59;0.70;;;0.63;;
2386;SDS011;49473;50.772;8.768;2023-02-18T08:44:27;1.23;;;0.77;;
2386;SDS011;49473;50.772;8.768;2023-02-18T08:46:54;1.03;;;1.00;;
2386;SDS011;49473;50.772;8.768;2023-02-18T08:49:21;0.80;;;0.53;;
2386;SDS011;49473;50.772;8.768;2023-02-18T08:51:48;0.53;;;0.53;;
2386;SDS011;49473;50.772;8.768;2023-02-18T08:54:15;0.93;;;0.60;;
2386;SDS011;49473;50.772;8.768;2023-02-18T08:56:41;0.93;;;0.67;;
2386;SDS011;49473;50.772;8.768;2023-02-18T08:59:08;0.90;;;0.40;;
2386;SDS011;49473;50.772;8.768;2023-02-18T09:01:36;1.20;;;0.90;;
2386;SDS011;49473;50.772;8.768;2023-02-18T09:04:03;1.17;;;0.97;;
2386;SDS011;49473;50.772;8.768;2023-02-18T09:06:30;6.10;;;3.60;;
2386;SDS011;49473;50.772;8.768;2023-02-18T09:08:57;4.50;;;3.03;;
2386;SDS011;49473;50.772;8.768;2023-02-18T09:11:23;2.17;;;1.80;;
2386;SDS011;49473;50.772;8.768;2023-02-18T09:13:50;1.40;;;0.90;;
2386;SDS011;49473;50.772;8.768;2023-02-18T09:16:17;2.87;;;0.80;;
2386;SDS011;49473;50.772;8.768;2023-02-18T09:18:45;0.63;;;0.57;;
2386;SDS011;49473;50.772;8.768;2023-02-18T09:21:14;0.70;;;0.60;;
2386;SDS011;49473;50.772;8.768;2023-02-18T09:23:43;1.13;;;0.67;;
2386;SDS011;49473;50.772;8.768;2023-02-18T09:26:11;1.33;;;0.50;;
2386;SDS011;49473;50.772;8.768;2023-02-18T09:28:40;0.57;;;0.30;;
2386;SDS011;49473;50.772;8.768;2023-02-18T09:31:08;0.50;;;0.50;;
2386;SDS011;49473;50.772;8.768;2023-02-18T09:33:37;1.03;;;0.57;;
2386;SDS011;49473;50.772;8.768;2023-02-18T09:36:07;0.50;;;0.50;;
2386;SDS011;49473;50.772;8.768;2023-02-18T09:38:34;1.53;;;1.33;;
2386;SDS011;49473;50.772;8.768;2023-02-18T09:41:02;0.90;;;0.90;;
2386;SDS011;49473;50.772;8.768;2023-02-18T09:43:33;0.80;;;0.80;;
2386;SDS011;49473;50.772;8.768;2023-02-18T09:46:06;0.60;;;0.60;;
2386;SDS011;49473;50.772;8.768;2023-02-18T09:48:39;0.77;;;0.77;;
2386;SDS011;49473;50.772;8.768;2023-02-18T09:51:11;1.23;;;0.50;;
2386;SDS011;49473;50.772;8.768;2023-02-18T09:53:39;1.00;;;0.90;;
2386;SDS011;49473;50.772;8.768;2023-02-18T09:56:08;0.60;;;0.60;;
2386;SDS011;49473;50.772;8.768;2023-02-18T09:58:40;1.13;;;0.50;;
2386;SDS011;49473;50.772;8.768;2023-02-18T10:01:09;0.90;;;0.90;;
2386;SDS011;49473;50.772;8.768;2023-02-18T10:03:41;0.73;;;0.70;;
2386;SDS011;49473;50.772;8.768;2023-02-18T10:06:09;0.97;;;0.80;;
2386;SDS011;49473;50.772;8.768;2023-02-18T10:08:42;0.73;;;0.73;;
2386;SDS011;49473;50.772;8.768;2023-02-18T10:11:11;1.00;;;0.57;;
2386;SDS011;49473;50.772;8.768;2023-02-18T10:13:41;0.90;;;0.90;;
2386;SDS011;49473;50.772;8.768;2023-02-18T10:16:08;1.00;;;1.00;;
2386;SDS011;49473;50.772;8.768;2023-02-18T10:18:42;0.80;;;0.80;;
2386;SDS011;49473;50.772;8.768;2023-02-18T10:21:14;0.60;;;0.60;;
2386;SDS011;49473;50.772;8.768;2023-02-18T10:23:46;0.50;;;0.50;;
2386;SDS011;49473;50.772;8.768;2023-02-18T10:26:20;0.50;;;0.50;;
2386;SDS011;49473;50.772;8.768;2023-02-18T10:28:47;0.80;;;0.80;;
2386;SDS011;49473;50.772;8.768;2023-02-18T10:31:14;1.03;;;0.80;;
2386;SDS011;49473;50.772;8.768;2023-02-18T10:33:51;0.70;;;0.67;;
2386;SDS011;49473;50.772;8.768;2023-02-18T10:36:24;0.50;;;0.50;;
2386;SDS011;49473;50.772;8.768;2023-02-18T10:38:59;2.10;;;0.57;;
2386;SDS011;49473;50.772;8.768;2023-02-18T10:41:58;0.70;;;0.57;;
2386;SDS011;49473;50.772;8.768;2023-02-18T10:44:34;0.60;;;0.60;;
2386;SDS011;49473;50.772;8.768;2023-02-18T10:47:10;0.60;;;0.60;;
2386;SDS011;49473;50.772;8.768;2023-02-18T10:49:58;1.40;;;0.80;;
2386;SDS011;49473;50.772;8.768;2023-02-18T10:52:29;1.00;;;0.90;;
2386;SDS011;49473;50.772;8.768;2023-02-18T10:55:03;1.07;;;0.87;;
2386;SDS011;49473;50.772;8.768;2023-02-18T10:57:33;1.03;;;0.70;;
2386;SDS011;49473;50.772;8.768;2023-02-18T11:00:01;2.33;;;0.70;;
2386;SDS011;49473;50.772;8.768;2023-02-18T11:02:40;1.47;;;1.00;;
2386;SDS011;49473;50.772;8.768;2023-02-18T11:05:15;1.00;;;1.00;;
2386;SDS011;49473;50.772;8.768;2023-02-18T11:07:47;1.47;;;0.80;;
2386;SDS011;49473;50.772;8.768;2023-02-18T11:10:17;0.70;;;0.50;;
2386;SDS011;49473;50.772;8.768;2023-02-18T11:12:48;0.60;;;0.60;;
2386;SDS011;49473;50.772;8.768;2023-02-18T11:15:17;0.77;;;0.40;;
2386;SDS011;49473;50.772;8.768;2023-02-18T11:17:45;0.60;;;0.60;;
2386;SDS011;49473;50.772;8.768;2023-02-18T11:23:18;1.17;;;0.90;;
2386;SDS011;49473;50.772;8.768;2023-02-18T11:25:54;2.00;;;0.97;;
2386;SDS011;49473;50.772;8.768;2023-02-18T11:28:30;1.23;;;1.00;;
2386;SDS011;49473;50.772;8.768;2023-02-18T11:31:05;1.60;;;0.90;;
2386;SDS011;49473;50.772;8.768;2023-02-18T11:33:33;2.87;;;1.57;;
2386;SDS011;49473;50.772;8.768;2023-02-18T11:36:04;1.47;;;1.07;;
2386;SDS011;49473;50.772;8.768;2023-02-18T11:38:42;1.73;;;1.00;;
2386;SDS011;49473;50.772;8.768;2023-02-18T11:41:12;2.80;;;1.37;;
2386;SDS011;49473;50.772;8.768;2023-02-18T11:43:42;2.60;;;0.90;;
2386;SDS011;49473;50.772;8.768;2023-02-18T11:46:13;2.93;;;1.30;;
2386;SDS011;49473;50.772;8.768;2023-02-18T11:48:42;3.23;;;0.93;;
2386;SDS011;49473;50.772;8.768;2023-02-18T11:51:13;1.20;;;1.10;;
2386;SDS011;49473;50.772;8.768;2023-02-18T11:53:53;2.73;;;1.70;;
2386;SDS011;49473;50.772;8.768;2023-02-18T11:56:26;2.23;;;1.40;;
2386;SDS011;49473;50.772;8.768;2023-02-18T11:58:55;2.53;;;1.90;;
2386;SDS011;49473;50.772;8.768;2023-02-18T12:01:35;4.03;;;2.07;;
2386;SDS011;49473;50.772;8.768;2023-02-18T12:04:07;4.47;;;3.33;;
2386;SDS011;49473;50.772;8.768;2023-02-18T12:06:40;2.03;;;1.70;;
2386;SDS011;49473;50.772;8.768;2023-02-18T12:09:18;4.73;;;2.40;;
2386;SDS011;49473;50.772;8.768;2023-02-18T12:11:49;3.03;;;1.60;;
2386;SDS011;49473;50.772;8.768;2023-02-18T12:14:19;2.30;;;1.47;;
2386;SDS011;49473;50.772;8.768;2023-02-18T12:16:51;2.67;;;2.10;;
2386;SDS011;49473;50.772;8.768;2023-02-18T12:19:45;5.20;;;2.10;;
2386;SDS011;49473;50.772;8.768;2023-02-18T12:22:26;1.37;;;1.00;;
2386;SDS011;49473;50.772;8.768;2023-02-18T12:28:02;2.80;;;2.33;;
2386;SDS011;49473;50.772;8.768;2023-02-18T12:30:44;3.00;;;2.23;;
2386;SDS011;49473;50.772;8.768;2023-02-18T12:33:28;2.57;;;1.63;;
2386;SDS011;49473;50.772;8.768;2023-02-18T12:36:07;2.07;;;1.83;;
2386;SDS011;49473;50.772;8.768;2023-02-18T12:38:49;5.30;;;3.07;;
2386;SDS011;49473;50.772;8.768;2023-02-18T12:44:30;2.53;;;1.50;;
2386;SDS011;49473;50.772;8.768;2023-02-18T12:47:29;3.57;;;2.40;;
2386;SDS011;49473;50.772;8.768;2023-02-18T12:53:05;1.87;;;1.07;;
2386;SDS011;49473;50.772;8.768;2023-02-18T12:55:50;2.17;;;1.50;;
2386;SDS011;49473;50.772;8.768;2023-02-18T12:58:33;3.43;;;1.97;;
2386;SDS011;49473;50.772;8.768;2023-02-18T13:01:14;2.80;;;2.00;;
2386;SDS011;49473;50.772;8.768;2023-02-18T13:03:57;2.60;;;1.80;;
2386;SDS011;49473;50.772;8.768;2023-02-18T13:06:57;4.57;;;3.67;;
2386;SDS011;49473;50.772;8.768;2023-02-18T13:09:53;5.10;;;2.70;;
2386;SDS011;49473;50.772;8.768;2023-02-18T13:12:37;2.90;;;1.80;;
2386;SDS011;49473;50.772;8.768;2023-02-18T13:15:12;4.50;;;1.90;;
2386;SDS011;49473;50.772;8.768;2023-02-18T13:17:43;1.73;;;1.20;;
2386;SDS011;49473;50.772;8.768;2023-02-18T13:20:13;2.53;;;1.10;;
2386;SDS011;49473;50.772;8.768;2023-02-18T13:22:45;2.03;;;1.60;;
2386;SDS011;49473;50.772;8.768;2023-02-18T13:25:14;1.57;;;1.10;;
2386;SDS011;49473;50.772;8.768;2023-02-18T13:27:44;1.30;;;1.00;;
2386;SDS011;49473;50.772;8.768;2023-02-18T13:30:22;1.77;;;0.93;;
2386;SDS011;49473;50.772;8.768;2023-02-18T13:32:57;1.10;;;0.90;;
2386;SDS011;49473;50.772;8.768;2023-02-18T13:35:33;0.80;;;0.80;;
2386;SDS011;49473;50.772;8.768;2023-02-18T13:38:10;1.33;;;0.90;;
2386;SDS011;49473;50.772;8.768;2023-02-18T13:40:45;0.70;;;0.70;;
2386;SDS011;49473;50.772;8.768;2023-02-18T13:43:16;1.27;;;0.67;;
2386;SDS011;49473;50.772;8.768;2023-02-18T13:45:48;1.73;;;0.80;;
2386;SDS011;49473;50.772;8.768;2023-02-18T13:48:29;1.27;;;0.77;;
2386;SDS011;49473;50.772;8.768;2023-02-18T13:50:59;0.77;;;0.77;;
2386;SDS011;49473;50.772;8.768;2023-02-18T13:53:29;1.53;;;1.10;;
2386;SDS011;49473;50.772;8.768;2023-02-18T13:56:00;1.80;;;1.40;;
2386;SDS011;49473;50.772;8.768;2023-02-18T13:58:31;1.53;;;1.10;;
2386;SDS011;49473;50.772;8.768;2023-02-18T14:01:18;2.30;;;0.93;;
2386;SDS011;49473;50.772;8.768;2023-02-18T14:03:59;0.50;;;0.50;;
2386;SDS011;49473;50.772;8.768;2023-02-18T14:06:28;0.90;;;0.90;;
2386;SDS011;49473;50.772;8.768;2023-02-18T14:12:14;1.10;;;0.93;;
2386;SDS011;49473;50.772;8.768;2023-02-18T14:14:52;1.93;;;0.90;;
2386;SDS011;49473;50.772;8.768;2023-02-18T14:17:30;2.77;;;1.10;;
2386;SDS011;49473;50.772;8.768;2023-02-18T14:22:56;0.70;;;0.60;;
2386;SDS011;49473;50.772;8.768;2023-02-18T14:25:30;0.63;;;0.63;;
2386;SDS011;49473;50.772;8.768;2023-02-18T14:28:01;0.77;;;0.57;;
2386;SDS011;49473;50.772;8.768;2023-02-18T14:30:32;1.77;;;0.70;;
2386;SDS011;49473;50.772;8.768;2023-02-18T14:33:04;2.20;;;2.10;;
2386;SDS011;49473;50.772;8.768;2023-02-18T14:35:31;5.20;;;1.50;;
2386;SDS011;49473;50.772;8.768;2023-02-18T14:38:14;0.97;;;0.97;;
2386;SDS011;49473;50.772;8.768;2023-02-18T14:41:07;0.90;;;0.63;;
2386;SDS011;49473;50.772;8.768;2023-02-18T14:43:56;0.80;;;0.80;;
2386;SDS011;49473;50.772;8.768;2023-02-18T14:46:49;0.70;;;0.70;;
2386;SDS011;49473;50.772;8.768;2023-02-18T14:49:33;0.70;;;0.60;;
2386;SDS011;49473;50.772;8.768;2023-02-18T14:52:04;1.10;;;0.70;;
2386;SDS011;49473;50.772;8.768;2023-02-18T14:54:35;1.23;;;0.87;;
2386;SDS011;49473;50.772;8.768;2023-02-18T14:57:06;0.60;;;0.60;;
2386;SDS011;49473;50.772;8.768;2023-02-18T14:59:34;1.30;;;0.80;;
2386;SDS011;49473;50.772;8.768;2023-02-18T15:02:08;1.23;;;0.77;;
2386;SDS011;49473;50.772;8.768;2023-02-18T15:04:44;0.60;;;0.60;;
2386;SDS011;49473;50.772;8.768;2023-02-18T15:07:11;1.23;;;0.80;;
2386;SDS011;49473;50.772;8.768;2023-02-18T15:09:43;0.70;;;0.70;;
2386;SDS011;49473;50.772;8.768;2023-02-18T15:12:11;0.50;;;0.50;;
2386;SDS011;49473;50.772;8.768;2023-02-18T15:14:42;2.67;;;0.90;;
2386;SDS011;49473;50.772;8.768;2023-02-18T15:17:11;0.63;;;0.63;;
2386;SDS011;49473;50.772;8.768;2023-02-18T15:19:41;0.83;;;0.60;;
2386;SDS011;49473;50.772;8.768;2023-02-18T15:22:14;1.33;;;0.77;;
2386;SDS011;49473;50.772;8.768;2023-02-18T15:24:43;0.60;;;0.60;;
2386;SDS011;49473;50.772;8.768;2023-02-18T15:27:11;1.60;;;0.57;;
2386;SDS011;49473;50.772;8.768;2023-02-18T15:29:40;1.53;;;0.90;;
2386;SDS011;49473;50.772;8.768;2023-02-18T15:32:14;0.80;;;0.80;;
2386;SDS011;49473;50.772;8.768;2023-02-18T15:34:42;0.70;;;0.67;;
2386;SDS011;49473;50.772;8.768;2023-02-18T15:37:11;0.67;;;0.53;;
2386;SDS011;49473;50.772;8.768;2023-02-18T15:39:41;0.97;;;0.87;;
2386;SDS011;49473;50.772;8.768;2023-02-18T15:42:11;1.17;;;0.70;;
2386;SDS011;49473;50.772;8.768;2023-02-18T15:44:45;1.20;;;1.00;;
2386;SDS011;49473;50.772;8.768;2023-02-18T15:47:13;1.60;;;1.33;;
2386;SDS011;49473;50.772;8.768;2023-02-18T15:49:44;2.20;;;1.83;;